Historyczne dane pomiarowe

Dodano dane terminowe – wersja testowa.

Dane z okresu 1951-2019

Wersja bazy: 1.32 [2019-02-07, lista zmian], aktualizacja planowana na 2019-03-07

Dane meteo z obszaru Polski uzyskane na podstawie danych udostępnionych przez Instytut Meteorologii i Gospodarki Wodnej – Państwowy Instytut Badawczy.

 

Wybierz Datę:    

       

TemperaturaWilgotnośćWiatrCiśnienieOpadyŚniegCzas trwania zjawisk
 Stacja t tx tn tng RH VA  wxwx mslp ppp RRR   cm mm wxwxwxwxwxwxwx
1974-01-14 -1.6 0.0 -3.6- 82.3- 6.7 6.7---- 0.0-- 2---------
1974-01-15 -0.9 0.2 -2.2- 79.8- 7.7 12.7---- 8.9-- 2---------
1974-01-16 3.4 5.2 -0.4- 80.5- 4.0 9.3---- 4.8------------
1974-01-17 3.4 5.8 1.8- 90.3- 7.3 6.7---- 4.2------------
1974-01-18 1.8 3.5 0.7- 87.8- 7.7 8.0---- 0.0------------
1974-01-19 3.6 5.5 0.1- 95.0- 7.7 4.0---- 0.0------------
1974-01-20 1.4 3.3 0.1- 90.5- 2.0 3.3---- 0.0------------
1974-01-21 1.0 2.5 -2.2- 95.0- 8.0 2.0---- 2.0------------
1974-01-22 2.0 2.9 0.9- 94.8- 8.0 1.7---- 0.2------------
1974-01-23 0.4 2.1 0.1- 94.0- 7.7 2.7---- 0.0------------
1974-01-24 1.5 3.3 -0.1- 91.3- 6.7 5.7---- 3.4------------
1974-01-25 3.8 4.3 2.4- 90.3- 7.0 4.0---- 0.2------------
1974-01-26 4.2 5.1 2.8- 96.0- 8.0 3.7---- 1.5------------
1974-01-27 2.7 4.8 0.4- 94.3- 4.7 2.0---- 0.0------------
1974-01-28 1.3 3.4 -0.2- 96.0- 5.3 1.7---- 0.4------------
1974-01-29 3.0 5.2 -0.1- 83.8- 6.7 6.0---- 0.6------------
1974-01-30 3.7 6.2 1.5- 86.3- 3.7 3.0---- 0.0------------
1974-01-31 2.1 4.3 0.3- 87.0- 4.7 4.7---- 0.0------------
1974-02-01 1.5 3.0 -0.8- 93.3- 7.7 0.0---- 0.0------------
1974-02-02 0.6 2.9 -2.7- 94.5- 3.3 1.7---- 0.0------------
1974-02-03 2.2 4.9 0.3- 93.8- 6.7 2.0---- 0.0------------
1974-02-04 1.4 1.9 0.3- 97.5- 8.0 1.7---- 0.5------------
1974-02-05 1.2 1.7 0.7- 84.8- 8.0 2.0---- 0.4------------
1974-02-06 1.7 2.7 0.3- 92.0- 8.0 4.3---- 3.5------------
1974-02-07 3.5 4.3 2.3- 87.8- 7.3 3.7---- 8.9------------
1974-02-08 0.6 2.7 0.2- 84.3- 5.0 11.3---- 1.2-- 2---------
1974-02-09 1.4 3.9 -0.4- 91.0- 8.0 5.0---- 4.4-- 3---------
1974-02-10 5.4 7.4 2.8- 91.3- 8.0 7.7---- 4.4------------
1974-02-11 7.9 10.2 3.2- 70.3- 6.7 9.3---- 0.0------------
1974-02-12 11.1 14.1 8.8- 59.3- 1.7 6.7---- 0.0------------
172.4 ms

 

Źródłem pochodzenia danych jest Instytut Meteorologii i Gospodarki Wodnej – Państwowy Instytut Badawczy. Dane Instytutu Meteorologii i Gospodarki Wodnej – Państwowego Instytutu Badawczego zostały przetworzone.

Dane źródłowe można odnaleźć na stronie https://dane.imgw.pl